createdAt,value
2019-03-01T00:00:53.970Z,3.57
2019-03-01T00:03:20.565Z,3.80
2019-03-01T00:06:08.473Z,3.73
2019-03-01T00:09:10.466Z,4.27
2019-03-01T00:11:40.575Z,4.23
2019-03-01T00:14:28.689Z,3.50
2019-03-01T00:17:01.529Z,3.20
2019-03-01T00:19:36.517Z,4.03
2019-03-01T00:22:26.974Z,3.70
2019-03-01T00:25:05.744Z,3.40
2019-03-01T00:27:50.822Z,3.57
2019-03-01T00:30:47.871Z,3.80
2019-03-01T00:33:40.301Z,4.03
2019-03-01T00:36:31.556Z,3.37
2019-03-01T00:39:06.150Z,3.37
2019-03-01T00:42:13.930Z,3.33
2019-03-01T00:44:47.797Z,3.42
2019-03-01T00:47:14.114Z,3.27
2019-03-01T00:49:47.160Z,2.90
2019-03-01T00:52:13.813Z,3.13
2019-03-01T00:54:48.433Z,3.83
2019-03-01T00:57:17.590Z,3.43
2019-03-01T00:59:58.819Z,3.00
2019-03-01T01:02:27.271Z,3.17
2019-03-01T01:04:55.353Z,3.57
2019-03-01T01:07:22.095Z,3.80
2019-03-01T01:09:52.788Z,3.87
2019-03-01T01:12:24.138Z,4.00
2019-03-01T01:15:07.639Z,3.60
2019-03-01T01:17:41.428Z,3.10
2019-03-01T01:20:10.441Z,3.50
2019-03-01T01:22:37.072Z,3.37
2019-03-01T01:25:04.312Z,3.60
2019-03-01T01:27:35.929Z,3.50
2019-03-01T01:30:05.320Z,3.40
2019-03-01T01:32:35.011Z,4.13
2019-03-01T01:35:09.719Z,3.47
2019-03-01T01:37:45.890Z,2.90
2019-03-01T01:40:18.938Z,3.43
2019-03-01T01:42:54.850Z,4.10
2019-03-01T01:45:27.259Z,4.70
2019-03-01T01:47:54.112Z,4.83
2019-03-01T01:50:23.682Z,4.37
2019-03-01T01:52:49.994Z,5.67
2019-03-01T01:55:23.374Z,5.27
2019-03-01T01:57:50.037Z,4.53
2019-03-01T02:00:18.539Z,5.23
2019-03-01T02:02:44.814Z,5.30
2019-03-01T02:05:13.064Z,4.90
2019-03-01T02:07:39.903Z,4.30
2019-03-01T02:10:08.133Z,4.60
2019-03-01T02:12:39.036Z,4.70
2019-03-01T02:15:09.213Z,4.77
2019-03-01T02:17:45.603Z,4.60
2019-03-01T02:20:14.190Z,5.20
2019-03-01T02:22:41.039Z,5.07
2019-03-01T02:25:11.908Z,4.90
2019-03-01T02:27:38.147Z,4.27
2019-03-01T02:30:13.727Z,4.00
2019-03-01T02:32:42.285Z,4.50
2019-03-01T02:35:23.432Z,3.77
2019-03-01T02:37:49.633Z,3.97
2019-03-01T02:40:16.427Z,3.80
2019-03-01T02:43:00.321Z,3.70
2019-03-01T02:45:26.500Z,3.27
2019-03-01T02:47:53.129Z,4.10
2019-03-01T02:50:29.440Z,3.87
2019-03-01T02:52:55.784Z,3.10
2019-03-01T02:55:22.247Z,3.03
2019-03-01T02:57:48.994Z,3.10
2019-03-01T03:00:26.028Z,3.12
2019-03-01T03:02:57.918Z,3.50
2019-03-01T03:05:24.286Z,3.40
2019-03-01T03:08:01.657Z,3.13
2019-03-01T03:10:34.325Z,2.87
2019-03-01T03:13:02.963Z,2.90
2019-03-01T03:15:35.945Z,3.10
2019-03-01T03:18:02.458Z,2.57
2019-03-01T03:20:39.633Z,2.67
2019-03-01T03:23:06.144Z,2.87
2019-03-01T03:25:32.419Z,3.10
2019-03-01T03:28:13.109Z,2.80
2019-03-01T03:30:39.448Z,2.80
2019-03-01T03:33:10.249Z,2.70
2019-03-01T03:35:36.478Z,2.60
2019-03-01T03:38:07.793Z,2.53
2019-03-01T03:43:31.992Z,2.67
2019-03-01T03:45:58.347Z,2.30
2019-03-01T03:48:24.612Z,2.20
2019-03-01T03:50:51.216Z,1.97
2019-03-01T03:53:25.500Z,2.20
2019-03-01T03:55:58.615Z,1.90
2019-03-01T03:58:28.661Z,1.90
2019-03-01T04:00:55.358Z,1.80
2019-03-01T04:03:22.081Z,1.90
2019-03-01T04:05:48.535Z,1.60
2019-03-01T04:08:25.658Z,1.60
2019-03-01T04:10:51.923Z,1.63
2019-03-01T04:13:18.267Z,1.70
2019-03-01T04:15:44.856Z,1.70
2019-03-01T04:18:11.344Z,1.50
2019-03-01T04:20:37.563Z,1.60
2019-03-01T04:23:03.840Z,1.50
2019-03-01T04:25:30.186Z,1.60
2019-03-01T04:27:56.752Z,1.87
2019-03-01T04:30:22.977Z,1.80
2019-03-01T04:32:49.226Z,1.70
2019-03-01T04:35:16.174Z,1.60
2019-03-01T04:37:42.503Z,2.03
2019-03-01T04:40:10.942Z,1.60
2019-03-01T04:42:37.170Z,2.10
2019-03-01T04:45:12.355Z,1.90
2019-03-01T04:47:47.517Z,2.17
2019-03-01T04:50:13.927Z,2.37
2019-03-01T04:52:40.382Z,2.17
2019-03-01T04:55:15.473Z,2.50
2019-03-01T04:57:41.799Z,2.23
2019-03-01T05:00:14.111Z,2.50
2019-03-01T05:02:40.493Z,2.50
2019-03-01T05:05:07.190Z,2.33
2019-03-01T05:07:33.633Z,2.20
2019-03-01T05:09:59.912Z,2.47
2019-03-01T05:12:37.620Z,2.17
2019-03-01T05:15:12.326Z,2.00
2019-03-01T05:17:53.085Z,1.90
2019-03-01T05:20:19.999Z,1.83
2019-03-01T05:22:57.129Z,1.70
2019-03-01T05:25:29.313Z,2.00
2019-03-01T05:27:55.489Z,1.53
2019-03-01T05:30:21.834Z,1.80
2019-03-01T05:32:48.668Z,1.83
2019-03-01T05:35:15.047Z,2.20
2019-03-01T05:37:41.369Z,2.17
2019-03-01T05:40:11.443Z,2.10
2019-03-01T05:42:37.684Z,1.70
2019-03-01T05:45:10.418Z,1.80
2019-03-01T05:47:36.555Z,2.20
2019-03-01T05:50:07.073Z,2.47
2019-03-01T05:52:33.814Z,5.20
2019-03-01T05:55:03.004Z,4.47
2019-03-01T05:57:29.371Z,3.60
2019-03-01T05:59:55.637Z,3.30
2019-03-01T06:02:28.567Z,2.90
2019-03-01T06:04:57.026Z,3.00
2019-03-01T06:07:47.950Z,2.93
2019-03-01T06:10:17.963Z,2.50
2019-03-01T06:13:02.959Z,2.40
2019-03-01T06:15:45.756Z,2.57
2019-03-01T06:18:27.918Z,2.93
2019-03-01T06:21:31.543Z,2.50
2019-03-01T06:24:25.552Z,2.50
2019-03-01T06:27:19.449Z,3.13
2019-03-01T06:30:07.596Z,3.37
2019-03-01T06:33:06.620Z,3.67
2019-03-01T06:35:45.728Z,3.73
2019-03-01T06:38:46.385Z,3.47
2019-03-01T06:41:26.945Z,3.30
2019-03-01T06:44:02.822Z,3.43
2019-03-01T06:46:38.698Z,3.00
2019-03-01T06:49:07.781Z,3.60
2019-03-01T06:51:33.998Z,3.40
2019-03-01T06:54:00.383Z,2.47
2019-03-01T06:56:26.679Z,2.90
2019-03-01T06:58:53.543Z,2.87
2019-03-01T07:01:20.285Z,4.33
2019-03-01T07:03:48.415Z,3.80
2019-03-01T07:06:14.651Z,4.13
2019-03-01T07:08:40.910Z,3.87
2019-03-01T07:11:07.246Z,3.67
2019-03-01T07:13:33.432Z,4.40
2019-03-01T07:15:59.764Z,3.87
2019-03-01T07:18:25.993Z,3.47
2019-03-01T07:20:52.259Z,3.23
2019-03-01T07:23:18.505Z,2.83
2019-03-01T07:25:44.736Z,2.80
2019-03-01T07:28:10.993Z,2.40
2019-03-01T07:30:37.746Z,2.53
2019-03-01T07:33:03.990Z,2.50
2019-03-01T07:35:30.363Z,2.20
2019-03-01T07:37:56.604Z,2.50
2019-03-01T07:40:22.844Z,2.80
2019-03-01T07:42:49.199Z,2.43
2019-03-01T07:45:16.633Z,2.70
2019-03-01T07:47:42.982Z,2.10
2019-03-01T07:50:11.408Z,2.10
2019-03-01T07:52:37.660Z,2.03
2019-03-01T07:55:09.427Z,1.70
2019-03-01T07:57:35.664Z,1.70
2019-03-01T08:00:02.612Z,1.53
2019-03-01T08:02:28.943Z,1.27
2019-03-01T08:04:55.160Z,1.60
2019-03-01T08:07:23.531Z,1.40
2019-03-01T08:09:49.428Z,1.20
2019-03-01T08:12:15.672Z,1.40
2019-03-01T08:14:41.779Z,1.10
2019-03-01T08:17:08.164Z,1.10
2019-03-01T08:19:34.474Z,1.20
2019-03-01T08:22:00.928Z,1.40
2019-03-01T08:24:27.180Z,1.10
2019-03-01T08:26:53.650Z,1.27
2019-03-01T08:29:20.004Z,1.20
2019-03-01T08:31:46.236Z,1.07
2019-03-01T08:34:14.487Z,1.10
2019-03-01T08:36:42.574Z,1.00
2019-03-01T08:39:08.883Z,1.03
2019-03-01T08:41:35.139Z,1.27
2019-03-01T08:44:01.347Z,1.00
2019-03-01T08:46:27.602Z,1.00
2019-03-01T08:48:53.931Z,1.20
2019-03-01T08:51:22.679Z,1.13
2019-03-01T08:53:53.498Z,1.20
2019-03-01T08:56:25.877Z,1.10
2019-03-01T08:58:47.802Z,1.10
2019-03-01T09:01:17.438Z,1.20
2019-03-01T09:03:50.378Z,1.20
2019-03-01T09:06:16.853Z,1.00
2019-03-01T09:08:46.248Z,0.97
2019-03-01T09:11:11.244Z,1.00
2019-03-01T09:13:37.458Z,1.10
2019-03-01T09:16:03.788Z,1.33
2019-03-01T09:18:30.044Z,1.30
2019-03-01T09:21:04.554Z,1.07
2019-03-01T09:23:27.347Z,1.00
2019-03-01T09:25:52.447Z,0.90
2019-03-01T09:28:18.635Z,1.00
2019-03-01T09:30:44.857Z,1.10
2019-03-01T09:33:11.154Z,1.20
2019-03-01T09:35:56.334Z,1.10
2019-03-01T09:38:22.839Z,1.70
2019-03-01T09:40:49.081Z,1.07
2019-03-01T09:43:15.490Z,1.00
2019-03-01T09:45:41.648Z,0.93
2019-03-01T09:48:08.771Z,1.00
2019-03-01T09:50:38.106Z,1.07
2019-03-01T09:53:04.436Z,1.10
2019-03-01T09:55:30.680Z,0.90
2019-03-01T09:57:56.799Z,0.93
2019-03-01T10:00:28.812Z,0.97
2019-03-01T10:02:55.081Z,1.00
2019-03-01T10:05:21.397Z,1.00
2019-03-01T10:07:47.670Z,0.90
2019-03-01T10:10:22.979Z,1.00
2019-03-01T10:12:49.437Z,0.93
2019-03-01T10:15:16.004Z,1.03
2019-03-01T10:17:42.295Z,0.90
2019-03-01T10:20:12.916Z,1.00
2019-03-01T10:22:39.142Z,0.93
2019-03-01T10:25:12.954Z,1.00
2019-03-01T10:27:40.372Z,0.87
2019-03-01T10:30:10.325Z,0.90
2019-03-01T10:32:36.645Z,0.87
2019-03-01T10:35:05.809Z,1.03
2019-03-01T10:37:32.081Z,0.90
2019-03-01T10:39:58.388Z,1.20
2019-03-01T10:42:25.350Z,0.93
2019-03-01T10:44:51.554Z,0.90
2019-03-01T10:47:17.762Z,1.00
2019-03-01T10:49:44.011Z,1.00
2019-03-01T10:52:12.203Z,1.00
2019-03-01T10:54:43.656Z,1.00
2019-03-01T10:57:10.005Z,0.90
2019-03-01T10:59:36.245Z,1.10
2019-03-01T11:02:10.908Z,1.00
2019-03-01T11:04:41.126Z,1.10
2019-03-01T11:07:07.498Z,1.13
2019-03-01T11:09:33.640Z,0.80
2019-03-01T11:11:59.921Z,0.93
2019-03-01T11:14:26.149Z,0.90
2019-03-01T11:16:52.459Z,0.90
2019-03-01T11:19:18.739Z,0.90
2019-03-01T11:21:53.724Z,1.00
2019-03-01T11:24:20.401Z,1.10
2019-03-01T11:26:46.706Z,0.90
2019-03-01T11:29:12.959Z,1.00
2019-03-01T11:31:39.276Z,1.10
2019-03-01T11:34:05.561Z,0.90
2019-03-01T11:36:33.764Z,1.00
2019-03-01T11:38:59.973Z,1.00
2019-03-01T11:41:26.514Z,1.10
2019-03-01T11:43:52.750Z,1.00
2019-03-01T11:46:19.007Z,1.40
2019-03-01T11:48:45.229Z,1.13
2019-03-01T11:51:11.479Z,1.00
2019-03-01T11:53:37.917Z,0.90
2019-03-01T11:56:04.327Z,0.90
2019-03-01T11:58:30.547Z,1.00
2019-03-01T12:00:56.991Z,1.00
2019-03-01T12:03:23.313Z,0.90
2019-03-01T12:05:49.706Z,0.80
2019-03-01T12:08:16.168Z,0.90
2019-03-01T12:10:42.376Z,1.10
2019-03-01T12:13:08.615Z,1.20
2019-03-01T12:15:34.735Z,0.90
2019-03-01T12:18:01.000Z,1.10
2019-03-01T12:20:29.203Z,0.87
2019-03-01T12:22:55.492Z,0.90
2019-03-01T12:25:21.946Z,1.10
2019-03-01T12:27:49.058Z,1.07
2019-03-01T12:30:23.910Z,1.27
2019-03-01T12:32:50.469Z,1.07
2019-03-01T12:35:16.803Z,1.13
2019-03-01T12:37:43.125Z,1.23
2019-03-01T12:40:21.493Z,1.40
2019-03-01T12:42:47.761Z,1.50
2019-03-01T12:45:14.492Z,1.60
2019-03-01T12:47:40.944Z,1.20
2019-03-01T12:50:10.275Z,1.30
2019-03-01T12:52:36.539Z,1.50
2019-03-01T12:55:15.228Z,1.70
2019-03-01T12:57:41.546Z,1.50
2019-03-01T13:00:11.117Z,2.60
2019-03-01T13:02:40.658Z,2.30
2019-03-01T13:05:10.039Z,2.10
2019-03-01T13:07:36.507Z,2.30
2019-03-01T13:10:07.049Z,2.20
2019-03-01T13:12:33.331Z,2.10
2019-03-01T13:14:59.665Z,2.17
2019-03-01T13:17:26.550Z,1.77
2019-03-01T13:19:52.829Z,1.95
2019-03-01T13:22:19.094Z,1.70
2019-03-01T13:24:45.379Z,1.70
2019-03-01T13:27:14.093Z,1.77
2019-03-01T13:29:41.948Z,1.80
2019-03-01T13:32:08.156Z,1.90
2019-03-01T13:34:34.520Z,2.50
2019-03-01T13:37:00.833Z,2.60
2019-03-01T13:39:28.062Z,3.50
2019-03-01T13:41:54.405Z,3.40
2019-03-01T13:44:20.768Z,4.43
2019-03-01T13:46:46.971Z,6.17
2019-03-01T13:49:13.345Z,7.20
2019-03-01T13:51:39.609Z,6.40
2019-03-01T13:54:08.939Z,5.70
2019-03-01T13:56:36.016Z,4.80
2019-03-01T13:59:03.059Z,5.42
2019-03-01T14:04:19.973Z,5.20
2019-03-01T14:06:46.258Z,5.20
2019-03-01T14:09:12.788Z,4.43
2019-03-01T14:11:39.235Z,4.70
2019-03-01T14:14:05.778Z,4.92
2019-03-01T14:16:32.116Z,4.85
2019-03-01T14:18:58.377Z,4.80
2019-03-01T14:21:24.600Z,4.53
2019-03-01T14:23:50.890Z,5.80
2019-03-01T14:26:18.461Z,5.05
2019-03-01T14:28:45.167Z,6.03
2019-03-01T14:31:12.255Z,5.50
2019-03-01T14:33:38.659Z,6.10
2019-03-01T14:36:05.014Z,6.08
2019-03-01T14:38:31.381Z,6.47
2019-03-01T14:40:59.735Z,7.00
2019-03-01T14:43:25.673Z,8.40
2019-03-01T14:45:51.897Z,7.40
2019-03-01T14:48:18.312Z,7.20
2019-03-01T14:50:44.541Z,7.55
2019-03-01T14:53:10.762Z,8.40
2019-03-01T14:56:10.705Z,8.98
2019-03-01T14:58:40.745Z,7.97
2019-03-01T15:01:39.698Z,8.87
2019-03-01T15:04:06.215Z,10.88
2019-03-01T15:06:32.507Z,10.18
2019-03-01T15:08:58.718Z,9.03
2019-03-01T15:11:24.981Z,11.08
2019-03-01T15:13:51.419Z,11.48
2019-03-01T15:16:17.925Z,9.55
2019-03-01T15:18:44.261Z,10.65
2019-03-01T15:21:11.981Z,11.70
2019-03-01T15:23:38.240Z,8.63
2019-03-01T15:26:04.703Z,8.80
2019-03-01T15:28:31.223Z,9.33
2019-03-01T15:31:13.658Z,9.65
2019-03-01T15:33:39.874Z,9.40
2019-03-01T15:36:06.136Z,10.05
2019-03-01T15:38:32.378Z,10.40
2019-03-01T15:40:58.535Z,10.28
2019-03-01T15:43:29.868Z,9.20
2019-03-01T15:45:57.251Z,9.55
2019-03-01T15:48:23.820Z,8.98
2019-03-01T15:50:50.159Z,9.48
2019-03-01T15:53:21.557Z,10.05
2019-03-01T15:55:49.295Z,9.08
2019-03-01T15:58:15.622Z,8.80
2019-03-01T16:00:41.877Z,9.50
2019-03-01T16:03:08.243Z,8.65
2019-03-01T16:05:37.392Z,8.90
2019-03-01T16:08:05.462Z,9.77
2019-03-01T16:10:32.978Z,8.98
2019-03-01T16:12:58.678Z,9.77
2019-03-01T16:15:24.957Z,10.40
2019-03-01T16:17:51.197Z,10.93
2019-03-01T16:20:19.219Z,11.67
2019-03-01T16:22:45.571Z,12.07
2019-03-01T16:25:17.259Z,12.40
2019-03-01T16:27:45.185Z,12.67
2019-03-01T16:30:17.428Z,12.23
2019-03-01T16:32:49.707Z,13.47
2019-03-01T16:35:16.223Z,14.23
2019-03-01T16:37:43.608Z,14.93
2019-03-01T16:40:12.278Z,15.70
2019-03-01T16:42:41.042Z,15.10
2019-03-01T16:45:12.703Z,21.77
2019-03-01T16:47:42.076Z,17.50
2019-03-01T16:50:12.114Z,16.00
2019-03-01T16:52:38.324Z,14.63
2019-03-01T16:55:20.703Z,15.90
2019-03-01T16:57:48.695Z,13.90
2019-03-01T17:00:18.151Z,13.60
2019-03-01T17:02:47.773Z,13.87
2019-03-01T17:05:14.337Z,15.20
2019-03-01T17:07:40.890Z,14.93
2019-03-01T17:10:13.441Z,16.53
2019-03-01T17:12:39.773Z,17.63
2019-03-01T17:15:13.845Z,19.23
2019-03-01T17:17:39.218Z,16.97
2019-03-01T17:20:07.914Z,17.63
2019-03-01T17:22:34.366Z,17.50
2019-03-01T17:25:00.685Z,17.87
2019-03-01T17:27:27.161Z,18.70
2019-03-01T17:29:53.576Z,17.17
2019-03-01T17:32:19.894Z,17.20
2019-03-01T17:34:46.210Z,14.70
2019-03-01T17:37:12.697Z,14.30
2019-03-01T17:39:38.960Z,12.97
2019-03-01T17:42:05.233Z,12.50
2019-03-01T17:44:31.573Z,11.77
2019-03-01T17:46:57.896Z,13.27
2019-03-01T17:49:24.263Z,12.00
2019-03-01T17:51:53.381Z,12.10
2019-03-01T17:54:19.067Z,14.03
2019-03-01T17:56:53.971Z,14.70
2019-03-01T17:59:44.623Z,14.57
2019-03-01T18:02:12.155Z,14.50
2019-03-01T18:04:37.726Z,15.90
2019-03-01T18:07:03.922Z,16.60
2019-03-01T18:09:30.250Z,16.63
2019-03-01T18:11:56.426Z,20.47
2019-03-01T18:14:22.657Z,28.00
2019-03-01T18:16:48.842Z,25.77
2019-03-01T18:19:17.628Z,20.43
2019-03-01T18:21:46.438Z,25.63
2019-03-01T18:24:14.367Z,21.77
2019-03-01T18:26:40.981Z,20.53
2019-03-01T18:29:08.378Z,18.70
2019-03-01T18:31:35.616Z,16.93
2019-03-01T18:34:02.083Z,16.67
2019-03-01T18:36:31.548Z,15.00
2019-03-01T18:38:56.383Z,15.57
2019-03-01T18:41:24.160Z,14.83
2019-03-01T18:43:50.671Z,15.17
2019-03-01T18:46:19.187Z,19.43
2019-03-01T18:48:50.569Z,19.67
2019-03-01T18:51:16.912Z,18.00
2019-03-01T18:53:43.035Z,15.90
2019-03-01T18:56:09.402Z,15.80
2019-03-01T18:58:36.108Z,16.53
2019-03-01T19:01:02.797Z,16.60
2019-03-01T19:03:29.015Z,16.63
2019-03-01T19:05:55.240Z,16.70
2019-03-01T19:08:21.554Z,18.40
2019-03-01T19:10:54.217Z,18.73
2019-03-01T19:13:15.827Z,19.70
2019-03-01T19:15:43.140Z,21.57
2019-03-01T19:18:09.402Z,23.77
2019-03-01T19:20:42.359Z,26.63
2019-03-01T19:23:08.717Z,27.47
2019-03-01T19:25:34.950Z,28.53
2019-03-01T19:28:01.144Z,29.43
2019-03-01T19:30:27.619Z,28.70
2019-03-01T19:32:54.387Z,29.00
2019-03-01T19:35:20.726Z,33.33
2019-03-01T19:37:49.612Z,30.20
2019-03-01T19:40:18.473Z,31.03
2019-03-01T19:42:44.671Z,36.70
2019-03-01T19:45:13.145Z,36.73
2019-03-01T19:47:39.484Z,39.43
2019-03-01T19:50:16.664Z,39.57
2019-03-01T19:52:43.467Z,40.83
2019-03-01T19:55:13.537Z,41.00
2019-03-01T19:57:43.217Z,43.10
2019-03-01T20:00:18.389Z,40.60
2019-03-01T20:02:44.754Z,42.60
2019-03-01T20:05:16.500Z,42.70
2019-03-01T20:07:43.573Z,44.13
2019-03-01T20:10:15.065Z,44.97
2019-03-01T20:12:46.229Z,45.33
2019-03-01T20:15:14.747Z,42.07
2019-03-01T20:17:44.420Z,42.37
2019-03-01T20:20:11.496Z,43.03
2019-03-01T20:22:37.961Z,44.77
2019-03-01T20:25:07.781Z,43.33
2019-03-01T20:27:35.594Z,44.90
2019-03-01T20:30:04.252Z,42.20
2019-03-01T20:32:30.654Z,42.00
2019-03-01T20:34:57.076Z,42.90
2019-03-01T20:37:24.680Z,40.63
2019-03-01T20:39:52.093Z,43.77
2019-03-01T20:42:23.546Z,40.67
2019-03-01T20:44:46.663Z,41.97
2019-03-01T20:47:15.520Z,40.77
2019-03-01T20:49:41.108Z,41.93
2019-03-01T20:52:07.469Z,40.53
2019-03-01T20:54:33.725Z,38.87
2019-03-01T20:57:00.157Z,41.57
2019-03-01T20:59:27.152Z,40.93
2019-03-01T21:01:53.437Z,40.80
2019-03-01T21:04:19.562Z,40.67
2019-03-01T21:06:45.935Z,41.33
2019-03-01T21:09:12.195Z,39.43
2019-03-01T21:11:38.710Z,39.43
2019-03-01T21:14:05.228Z,40.73
2019-03-01T21:16:31.594Z,42.17
2019-03-01T21:18:59.763Z,40.90
2019-03-01T21:21:28.914Z,40.30
2019-03-01T21:23:54.280Z,42.23
2019-03-01T21:26:20.533Z,36.30
2019-03-01T21:28:46.738Z,38.67
2019-03-01T21:31:14.294Z,39.33
2019-03-01T21:33:40.707Z,39.17
2019-03-01T21:36:06.861Z,44.60
2019-03-01T21:38:33.645Z,38.70
2019-03-01T21:41:00.084Z,37.37
2019-03-01T21:43:26.304Z,42.67
2019-03-01T21:45:55.532Z,54.17
2019-03-01T21:48:21.957Z,45.00
2019-03-01T21:51:01.016Z,58.10
2019-03-01T21:53:27.955Z,66.93
2019-03-01T21:55:55.506Z,93.83
2019-03-01T21:58:21.902Z,73.20
2019-03-01T22:00:48.465Z,82.80
2019-03-01T22:03:14.757Z,100.07
2019-03-01T22:05:41.131Z,66.47
2019-03-01T22:08:09.504Z,48.50
2019-03-01T22:10:38.751Z,42.87
2019-03-01T22:13:03.726Z,38.77
2019-03-01T22:15:30.379Z,39.10
2019-03-01T22:17:56.609Z,37.67
2019-03-01T22:20:36.203Z,36.73
2019-03-01T22:26:01.635Z,37.16
2019-03-01T22:28:36.084Z,35.70
2019-03-01T22:31:03.356Z,38.77
2019-03-01T22:33:29.685Z,39.03
2019-03-01T22:36:08.598Z,38.80
2019-03-01T22:38:37.632Z,35.07
2019-03-01T22:41:03.931Z,34.17
2019-03-01T22:43:30.924Z,40.77
2019-03-01T22:46:03.063Z,37.40
2019-03-01T22:48:29.281Z,41.73
2019-03-01T22:50:55.614Z,42.30
2019-03-01T22:53:21.862Z,44.30
2019-03-01T22:55:48.095Z,42.50
2019-03-01T23:01:22.193Z,38.83
2019-03-01T23:07:08.546Z,40.30
2019-03-01T23:09:47.600Z,40.57
2019-03-01T23:12:21.125Z,38.20
2019-03-01T23:14:46.048Z,39.63
2019-03-01T23:17:15.758Z,37.37
2019-03-01T23:19:41.936Z,39.20
2019-03-01T23:22:18.239Z,35.70
2019-03-01T23:24:46.332Z,34.92
2019-03-01T23:27:12.706Z,37.33
2019-03-01T23:29:45.131Z,35.00
2019-03-01T23:32:11.768Z,34.80
2019-03-01T23:40:26.724Z,34.50
2019-03-01T23:42:53.378Z,32.07
2019-03-01T23:45:21.221Z,34.37
2019-03-01T23:47:47.609Z,33.40
2019-03-01T23:50:13.994Z,34.20
2019-03-01T23:52:40.201Z,32.50
2019-03-01T23:55:07.280Z,36.23
